createdAt,value
2019-04-25T00:00:11.880Z,98210.63
2019-04-25T00:02:43.962Z,98216.83
2019-04-25T00:05:15.102Z,98208.69
2019-04-25T00:07:44.950Z,98194.99
2019-04-25T00:10:15.266Z,98199.98
2019-04-25T00:12:44.699Z,98205.61
2019-04-25T00:15:14.850Z,98206.98
2019-04-25T00:17:44.858Z,98201.08
2019-04-25T00:20:14.637Z,98195.72
2019-04-25T00:22:45.690Z,98201.22
2019-04-25T00:25:29.558Z,98206.22
2019-04-25T00:27:59.271Z,98202.53
2019-04-25T00:30:31.250Z,98204.20
2019-04-25T00:33:02.029Z,98209.00
2019-04-25T00:35:31.738Z,98209.45
2019-04-25T00:38:02.351Z,98201.55
2019-04-25T00:40:32.317Z,98204.41
2019-04-25T00:43:03.764Z,98210.02
2019-04-25T00:45:33.209Z,98210.22
2019-04-25T00:48:04.338Z,98208.30
2019-04-25T00:50:34.004Z,98213.27
2019-04-25T00:53:03.729Z,98216.48
2019-04-25T00:55:33.437Z,98218.97
2019-04-25T00:58:04.505Z,98218.31
2019-04-25T01:00:41.657Z,98219.55
2019-04-25T01:03:13.011Z,98216.81
2019-04-25T01:05:44.413Z,98213.29
2019-04-25T01:08:13.987Z,98215.42
2019-04-25T01:10:44.284Z,98218.67
2019-04-25T01:13:14.117Z,98215.55
2019-04-25T01:15:44.832Z,98217.37
2019-04-25T01:18:14.765Z,98213.62
2019-04-25T01:20:45.444Z,98216.71
2019-04-25T01:23:15.201Z,98228.73
2019-04-25T01:25:46.702Z,98230.61
2019-04-25T01:28:16.234Z,98231.05
2019-04-25T01:30:46.464Z,98232.45
2019-04-25T01:33:16.176Z,98234.00
2019-04-25T01:35:59.232Z,98232.94
2019-04-25T01:38:30.541Z,98234.63
2019-04-25T01:41:10.704Z,98250.63
2019-04-25T01:43:44.811Z,98251.97
2019-04-25T01:46:15.033Z,98245.82
2019-04-25T01:48:44.740Z,98249.42
2019-04-25T01:51:14.446Z,98249.70
2019-04-25T01:53:44.171Z,98250.27
2019-04-25T01:56:14.070Z,98262.93
2019-04-25T01:58:43.854Z,98261.59
2019-04-25T02:01:14.826Z,98264.05
2019-04-25T02:03:45.262Z,98258.03
2019-04-25T02:06:14.729Z,98250.54
2019-04-25T02:08:44.182Z,98250.18
2019-04-25T02:11:15.479Z,98256.24
2019-04-25T02:13:45.219Z,98255.63
2019-04-25T02:16:14.926Z,98266.88
2019-04-25T02:18:44.626Z,98264.99
2019-04-25T02:21:14.056Z,98266.51
2019-04-25T02:23:44.268Z,98269.63
2019-04-25T02:26:16.821Z,98262.95
2019-04-25T02:28:45.335Z,98268.16
2019-04-25T02:31:17.954Z,98272.98
2019-04-25T02:33:46.260Z,98288.18
2019-04-25T02:36:15.693Z,98282.56
2019-04-25T02:38:45.198Z,98282.12
2019-04-25T02:41:14.998Z,98282.38
2019-04-25T02:43:45.380Z,98271.11
2019-04-25T02:46:24.736Z,98267.27
2019-04-25T02:49:26.556Z,98271.31
2019-04-25T02:51:46.930Z,98278.19
2019-04-25T02:54:16.370Z,98276.28
2019-04-25T02:56:46.680Z,98277.16
2019-04-25T02:59:16.672Z,98270.89
2019-04-25T03:01:46.090Z,98271.81
2019-04-25T03:04:15.527Z,98274.27
2019-04-25T03:06:45.565Z,98268.45
2019-04-25T03:09:15.777Z,98268.28
2019-04-25T03:11:47.619Z,98267.66
2019-04-25T03:14:16.755Z,98269.80
2019-04-25T03:16:46.282Z,98272.97
2019-04-25T03:19:26.360Z,98286.34
2019-04-25T03:22:11.545Z,98279.53
2019-04-25T03:24:40.477Z,98277.59
2019-04-25T03:27:09.883Z,98282.79
2019-04-25T03:29:39.658Z,98278.91
2019-04-25T03:32:13.808Z,98276.02
2019-04-25T03:34:40.630Z,98281.05
2019-04-25T03:37:10.060Z,98275.45
2019-04-25T03:39:39.499Z,98279.63
2019-04-25T03:42:09.863Z,98287.59
2019-04-25T03:44:39.761Z,98286.91
2019-04-25T03:47:09.776Z,98288.00
2019-04-25T03:49:39.594Z,98292.77
2019-04-25T03:52:09.090Z,98296.13
2019-04-25T03:54:38.802Z,98291.41
2019-04-25T03:57:08.542Z,98287.09
2019-04-25T03:59:38.221Z,98287.45
2019-04-25T04:02:08.196Z,98289.22
2019-04-25T04:04:38.477Z,98283.51
2019-04-25T04:07:09.647Z,98275.41
2019-04-25T04:09:39.069Z,98274.17
2019-04-25T04:12:08.816Z,98267.97
2019-04-25T04:14:38.525Z,98259.56
2019-04-25T04:17:24.590Z,98253.16
2019-04-25T04:19:56.213Z,98247.55
2019-04-25T04:22:27.281Z,98235.66
2019-04-25T04:24:58.655Z,98226.52
2019-04-25T04:27:28.085Z,98219.46
2019-04-25T04:29:57.523Z,98216.28
2019-04-25T04:32:26.953Z,98216.41
2019-04-25T04:34:56.402Z,98223.39
2019-04-25T04:37:25.847Z,98235.13
2019-04-25T04:39:55.580Z,98252.78
2019-04-25T04:42:25.291Z,98256.49
2019-04-25T04:44:54.728Z,98263.27
2019-04-25T04:47:24.502Z,98259.41
2019-04-25T04:49:54.208Z,98252.27
2019-04-25T04:52:25.732Z,98256.06
2019-04-25T04:55:05.370Z,98262.75
2019-04-25T04:57:32.958Z,98260.93
2019-04-25T04:59:57.857Z,98252.55
2019-04-25T05:02:47.221Z,98252.94
2019-04-25T05:05:27.282Z,98254.75
2019-04-25T05:08:04.568Z,98249.50
2019-04-25T05:10:34.278Z,98247.92
2019-04-25T05:13:04.358Z,98239.85
2019-04-25T05:15:34.109Z,98242.35
2019-04-25T05:18:04.033Z,98243.03
2019-04-25T05:20:35.483Z,98240.84
2019-04-25T05:23:05.044Z,98242.41
2019-04-25T05:25:34.789Z,98237.56
2019-04-25T05:28:05.391Z,98239.36
2019-04-25T05:30:43.634Z,98236.76
2019-04-25T05:33:16.273Z,98230.64
2019-04-25T05:35:44.703Z,98233.19
2019-04-25T05:38:15.107Z,98232.66
2019-04-25T05:40:53.894Z,98228.16
2019-04-25T05:43:24.928Z,98220.02
2019-04-25T05:45:55.197Z,98227.64
2019-04-25T05:48:25.382Z,98231.08
2019-04-25T05:50:55.642Z,98232.13
2019-04-25T05:53:25.394Z,98226.25
2019-04-25T05:55:55.691Z,98226.53
2019-04-25T05:58:25.921Z,98228.97
2019-04-25T06:00:56.632Z,98225.80
2019-04-25T06:03:27.387Z,98228.27
2019-04-25T06:05:57.065Z,98231.55
2019-04-25T06:08:28.141Z,98231.21
2019-04-25T06:10:59.231Z,98230.84
2019-04-25T06:13:36.260Z,98238.94
2019-04-25T06:16:07.605Z,98232.84
2019-04-25T06:18:55.305Z,98234.33
2019-04-25T06:21:25.646Z,98232.16
2019-04-25T06:24:13.470Z,98234.01
2019-04-25T06:26:50.363Z,98230.85
2019-04-25T06:29:20.520Z,98229.95
2019-04-25T06:31:50.149Z,98235.80
2019-04-25T06:34:19.967Z,98233.47
2019-04-25T06:36:49.788Z,98231.89
2019-04-25T06:39:20.315Z,98227.15
2019-04-25T06:41:50.234Z,98226.32
2019-04-25T06:44:22.385Z,98215.00
2019-04-25T06:47:10.746Z,98209.87
2019-04-25T06:49:43.905Z,98214.38
2019-04-25T06:52:13.911Z,98204.98
2019-04-25T06:54:43.758Z,98213.62
2019-04-25T06:57:14.141Z,98208.40
2019-04-25T06:59:43.781Z,98205.91
2019-04-25T07:02:13.973Z,98203.98
2019-04-25T07:04:45.603Z,98195.30
2019-04-25T07:07:15.088Z,98187.19
2019-04-25T07:09:44.574Z,98189.46
2019-04-25T07:12:14.403Z,98183.03
2019-04-25T07:14:44.118Z,98184.84
2019-04-25T07:17:14.290Z,98177.20
2019-04-25T07:19:44.193Z,98177.16
2019-04-25T07:22:15.415Z,98181.62
2019-04-25T07:24:45.056Z,98180.77
2019-04-25T07:27:24.558Z,98175.45
2019-04-25T07:30:11.113Z,98172.03
2019-04-25T07:32:58.777Z,98168.64
2019-04-25T07:35:29.007Z,98169.06
2019-04-25T07:37:58.768Z,98160.61
2019-04-25T07:40:29.626Z,98156.31
2019-04-25T07:42:59.551Z,98152.70
2019-04-25T07:45:29.135Z,98146.44
2019-04-25T07:47:58.578Z,98135.99
2019-04-25T07:50:28.587Z,98136.96
2019-04-25T07:52:58.511Z,98140.15
2019-04-25T07:55:29.147Z,98140.77
2019-04-25T07:57:58.919Z,98138.64
2019-04-25T08:00:31.355Z,98125.77
2019-04-25T08:03:01.101Z,98130.37
2019-04-25T08:05:31.403Z,98122.78
2019-04-25T08:08:01.238Z,98133.34
2019-04-25T08:10:53.451Z,98130.95
2019-04-25T08:13:23.755Z,98135.13
2019-04-25T08:15:58.118Z,98133.91
2019-04-25T08:18:28.689Z,98134.50
2019-04-25T08:20:58.753Z,98125.38
2019-04-25T08:23:31.931Z,98125.50
2019-04-25T08:25:59.742Z,98121.79
2019-04-25T08:28:29.609Z,98119.76
2019-04-25T08:31:00.162Z,98117.72
2019-04-25T08:33:29.859Z,98106.62
2019-04-25T08:36:08.172Z,98114.62
2019-04-25T08:38:31.505Z,98114.94
2019-04-25T08:41:01.055Z,98112.33
2019-04-25T08:43:30.945Z,98107.97
2019-04-25T08:46:00.480Z,98103.19
2019-04-25T08:48:35.760Z,98116.70
2019-04-25T08:51:07.351Z,98105.25
2019-04-25T08:53:41.162Z,98099.56
2019-04-25T08:56:21.125Z,98103.89
2019-04-25T08:59:05.399Z,98106.30
2019-04-25T09:01:34.895Z,98098.55
2019-04-25T09:04:18.964Z,98099.21
2019-04-25T09:06:48.719Z,98094.56
2019-04-25T09:09:18.235Z,98094.06
2019-04-25T09:11:48.037Z,98098.14
2019-04-25T09:14:17.746Z,98091.83
2019-04-25T09:16:47.195Z,98090.36
2019-04-25T09:19:16.640Z,98094.66
2019-04-25T09:21:49.526Z,98083.63
2019-04-25T09:24:17.812Z,98088.03
2019-04-25T09:26:47.256Z,98082.78
2019-04-25T09:29:19.775Z,98077.76
2019-04-25T09:31:47.858Z,98074.52
2019-04-25T09:34:17.569Z,98076.48
2019-04-25T09:36:47.018Z,98067.19
2019-04-25T09:39:18.428Z,98064.31
2019-04-25T09:41:47.878Z,98059.85
2019-04-25T09:44:19.276Z,98055.83
2019-04-25T09:46:49.091Z,98051.11
2019-04-25T09:49:23.813Z,98051.38
2019-04-25T09:51:57.618Z,98052.22
2019-04-25T09:54:38.061Z,98045.17
2019-04-25T09:57:17.872Z,98041.43
2019-04-25T09:59:48.146Z,98040.49
2019-04-25T10:02:18.262Z,98037.98
2019-04-25T10:04:48.180Z,98032.52
2019-04-25T10:07:17.639Z,98027.52
2019-04-25T10:09:47.207Z,98023.98
2019-04-25T10:12:16.657Z,98021.11
2019-04-25T10:15:11.860Z,98022.15
2019-04-25T10:17:41.311Z,98024.06
2019-04-25T10:20:14.409Z,98018.80
2019-04-25T10:22:44.554Z,98005.19
2019-04-25T10:25:14.694Z,98012.89
2019-04-25T10:27:47.870Z,98006.52
2019-04-25T10:30:20.560Z,98004.89
2019-04-25T10:32:48.040Z,98003.46
2019-04-25T10:35:17.562Z,97993.28
2019-04-25T10:37:48.335Z,97991.31
2019-04-25T10:40:18.914Z,97998.25
2019-04-25T10:42:50.374Z,97990.38
2019-04-25T10:45:23.107Z,97983.81
2019-04-25T10:47:51.340Z,97984.78
2019-04-25T10:50:21.131Z,97983.34
2019-04-25T10:52:50.586Z,97980.55
2019-04-25T10:55:20.092Z,97977.23
2019-04-25T10:57:49.539Z,97968.38
2019-04-25T11:00:29.237Z,97962.93
2019-04-25T11:03:00.329Z,97969.38
2019-04-25T11:05:29.771Z,97966.58
2019-04-25T11:07:59.219Z,97965.10
2019-04-25T11:10:28.899Z,97959.81
2019-04-25T11:12:58.357Z,97956.69
2019-04-25T11:15:27.934Z,97953.06
2019-04-25T11:17:57.379Z,97947.56
2019-04-25T11:20:33.804Z,97936.57
2019-04-25T11:23:05.280Z,97934.99
2019-04-25T11:25:34.960Z,97929.16
2019-04-25T11:28:06.445Z,97934.73
2019-04-25T11:30:36.017Z,97925.42
2019-04-25T11:33:09.122Z,97924.20
2019-04-25T11:35:39.039Z,97922.14
2019-04-25T11:38:10.397Z,97919.84
2019-04-25T11:40:46.602Z,97923.47
2019-04-25T11:43:14.201Z,97918.68
2019-04-25T11:45:45.063Z,97913.28
2019-04-25T11:48:15.397Z,97922.64
2019-04-25T11:50:49.679Z,97928.25
2019-04-25T11:53:16.087Z,97922.56
2019-04-25T11:55:48.041Z,97922.36
2019-04-25T11:58:17.277Z,97916.86
2019-04-25T12:00:47.150Z,97923.23
2019-04-25T12:03:16.894Z,97925.45
2019-04-25T12:05:48.178Z,97917.80
2019-04-25T12:08:17.694Z,97912.45
2019-04-25T12:10:47.878Z,97909.87
2019-04-25T12:13:17.353Z,97898.19
2019-04-25T12:15:47.119Z,97900.88
2019-04-25T12:18:16.626Z,97896.36
2019-04-25T12:20:47.337Z,97899.55
2019-04-25T12:23:17.172Z,97890.11
2019-04-25T12:25:47.551Z,97882.05
2019-04-25T12:28:17.183Z,97892.88
2019-04-25T12:30:47.552Z,97885.37
2019-04-25T12:33:20.925Z,97887.30
2019-04-25T12:35:48.496Z,97888.55
2019-04-25T12:38:20.324Z,97877.50
2019-04-25T12:40:50.016Z,97866.55
2019-04-25T12:43:21.324Z,97877.25
2019-04-25T12:46:07.363Z,97870.88
2019-04-25T12:48:37.160Z,97870.55
2019-04-25T12:51:06.927Z,97867.29
2019-04-25T12:53:36.376Z,97867.41
2019-04-25T12:56:05.949Z,97872.20
2019-04-25T12:58:35.693Z,97867.80
2019-04-25T13:01:06.097Z,97867.98
2019-04-25T13:03:35.823Z,97868.62
2019-04-25T13:06:05.326Z,97867.83
2019-04-25T13:08:34.766Z,97869.29
2019-04-25T13:11:08.506Z,97861.78
2019-04-25T13:13:35.642Z,97850.94
2019-04-25T13:16:05.536Z,97854.64
2019-04-25T13:18:34.978Z,97852.11
2019-04-25T13:21:05.515Z,97852.19
2019-04-25T13:23:35.021Z,97854.34
2019-04-25T13:26:07.680Z,97848.55
2019-04-25T13:28:40.603Z,97840.38
2019-04-25T13:31:23.981Z,97846.77
2019-04-25T13:33:58.818Z,97835.70
2019-04-25T13:36:28.265Z,97834.59
2019-04-25T13:38:57.954Z,97836.63
2019-04-25T13:41:27.789Z,97821.42
2019-04-25T13:43:57.747Z,97823.24
2019-04-25T13:46:27.763Z,97824.07
2019-04-25T13:48:57.521Z,97826.20
2019-04-25T13:51:26.974Z,97819.09
2019-04-25T13:53:56.407Z,97818.23
2019-04-25T13:56:27.433Z,97824.28
2019-04-25T13:58:57.087Z,97816.32
2019-04-25T14:01:27.546Z,97804.58
2019-04-25T14:03:57.944Z,97814.30
2019-04-25T14:06:28.391Z,97797.47
2019-04-25T14:08:57.924Z,97809.88
2019-04-25T14:11:28.004Z,97799.91
2019-04-25T14:13:57.532Z,97797.53
2019-04-25T14:16:31.309Z,97789.41
2019-04-25T14:19:18.567Z,97789.38
2019-04-25T14:21:48.811Z,97784.64
2019-04-25T14:24:20.547Z,97779.90
2019-04-25T14:26:49.438Z,97778.20
2019-04-25T14:29:19.120Z,97775.80
2019-04-25T14:31:48.655Z,97770.24
2019-04-25T14:34:18.097Z,97768.27
2019-04-25T14:36:47.540Z,97763.25
2019-04-25T14:39:18.631Z,97761.52
2019-04-25T14:41:48.341Z,97762.48
2019-04-25T14:44:17.791Z,97768.42
2019-04-25T14:46:47.478Z,97755.12
2019-04-25T14:49:16.925Z,97749.40
2019-04-25T14:51:46.377Z,97755.33
2019-04-25T14:54:17.458Z,97751.09
2019-04-25T14:57:04.723Z,97752.22
2019-04-25T14:59:34.253Z,97745.20
2019-04-25T15:02:03.828Z,97745.25
2019-04-25T15:04:33.273Z,97743.63
2019-04-25T15:07:02.727Z,97744.69
2019-04-25T15:09:32.299Z,97736.94
2019-04-25T15:12:01.773Z,97744.83
2019-04-25T15:14:31.494Z,97742.30
2019-04-25T15:17:01.268Z,97734.75
2019-04-25T15:19:30.965Z,97740.77
2019-04-25T15:22:01.510Z,97737.70
2019-04-25T15:24:32.206Z,97742.02
2019-04-25T15:27:02.147Z,97733.30
2019-04-25T15:29:31.863Z,97736.23
2019-04-25T15:32:01.379Z,97734.42
2019-04-25T15:34:33.357Z,97736.50
2019-04-25T15:37:10.410Z,97737.74
2019-04-25T15:39:44.276Z,97739.36
2019-04-25T15:42:15.603Z,97738.86
2019-04-25T15:44:59.959Z,97739.89
2019-04-25T15:47:31.862Z,97733.02
2019-04-25T15:50:01.496Z,97734.00
2019-04-25T15:52:31.093Z,97732.95
2019-04-25T15:55:06.853Z,97733.22
2019-04-25T15:57:32.506Z,97734.33
2019-04-25T16:00:02.069Z,97730.03
2019-04-25T16:02:32.389Z,97730.02
2019-04-25T16:05:01.805Z,97721.25
2019-04-25T16:07:31.322Z,97722.13
2019-04-25T16:10:00.765Z,97724.47
2019-04-25T16:12:30.800Z,97719.41
2019-04-25T16:15:00.566Z,97725.33
2019-04-25T16:17:30.690Z,97723.05
2019-04-25T16:20:00.141Z,97729.41
2019-04-25T16:22:30.285Z,97732.71
2019-04-25T16:25:00.174Z,97739.27
2019-04-25T16:27:30.393Z,97734.30
2019-04-25T16:29:59.832Z,97740.10
2019-04-25T16:32:30.157Z,97742.67
2019-04-25T16:35:00.542Z,97737.20
2019-04-25T16:37:30.350Z,97736.41
2019-04-25T16:40:00.071Z,97738.28
2019-04-25T16:42:30.373Z,97739.45
2019-04-25T16:44:59.914Z,97739.33
2019-04-25T16:47:31.157Z,97744.38
2019-04-25T16:50:00.987Z,97743.39
2019-04-25T16:52:31.669Z,97751.78
2019-04-25T16:55:01.114Z,97746.34
2019-04-25T16:57:33.071Z,97749.48
2019-04-25T17:00:02.648Z,97755.66
2019-04-25T17:02:37.607Z,97757.87
2019-04-25T17:05:08.093Z,97759.77
2019-04-25T17:07:38.448Z,97766.54
2019-04-25T17:10:09.578Z,97760.75
2019-04-25T17:12:39.286Z,97761.00
2019-04-25T17:15:16.461Z,97759.23
2019-04-25T17:17:53.563Z,97756.83
2019-04-25T17:20:27.667Z,97756.88
2019-04-25T17:22:57.457Z,97760.52
2019-04-25T17:25:27.286Z,97758.46
2019-04-25T17:27:56.994Z,97754.59
2019-04-25T17:30:28.450Z,97757.56
2019-04-25T17:33:14.952Z,97765.38
2019-04-25T17:35:46.038Z,97760.42
2019-04-25T17:38:19.472Z,97768.69
2019-04-25T17:40:48.661Z,97769.41
2019-04-25T17:43:18.411Z,97768.25
2019-04-25T17:45:47.861Z,97764.56
2019-04-25T17:48:17.304Z,97770.19
2019-04-25T17:50:47.010Z,97774.87
2019-04-25T17:53:16.723Z,97780.05
2019-04-25T17:55:46.153Z,97783.27
2019-04-25T17:58:15.610Z,97787.55
2019-04-25T18:00:46.175Z,97790.58
2019-04-25T18:03:15.963Z,97795.63
2019-04-25T18:05:46.033Z,97795.17
2019-04-25T18:08:15.522Z,97801.34
2019-04-25T18:10:44.958Z,97803.70
2019-04-25T18:13:14.408Z,97800.84
2019-04-25T18:15:45.977Z,97804.27
2019-04-25T18:18:17.291Z,97811.61
2019-04-25T18:20:46.735Z,97811.17
2019-04-25T18:23:23.898Z,97813.64
2019-04-25T18:26:06.535Z,97811.42
2019-04-25T18:28:43.664Z,97824.17
2019-04-25T18:31:13.324Z,97826.98
2019-04-25T18:33:43.946Z,97830.63
2019-04-25T18:36:15.367Z,97833.17
2019-04-25T18:38:47.532Z,97842.23
2019-04-25T18:41:21.274Z,97854.62
2019-04-25T18:43:52.613Z,97862.19
2019-04-25T18:46:23.708Z,97888.21
2019-04-25T18:48:53.190Z,97891.31
2019-04-25T18:51:22.639Z,97901.84
2019-04-25T18:53:51.846Z,97908.27
2019-04-25T18:56:39.555Z,97919.94
2019-04-25T18:59:21.142Z,97927.97
2019-04-25T19:01:55.050Z,97932.52
2019-04-25T19:04:29.190Z,97951.03
2019-04-25T19:06:58.634Z,97957.10
2019-04-25T19:09:28.386Z,97973.20
2019-04-25T19:11:57.818Z,97970.03
2019-04-25T19:14:27.422Z,97971.31
2019-04-25T19:16:57.200Z,97970.84
2019-04-25T19:19:26.650Z,97981.53
2019-04-25T19:21:56.324Z,97993.22
2019-04-25T19:24:25.772Z,98003.34
2019-04-25T19:26:55.523Z,98018.92
2019-04-25T19:29:24.963Z,98016.12
2019-04-25T19:31:54.656Z,98021.28
2019-04-25T19:34:24.332Z,98042.44
2019-04-25T19:36:54.050Z,98046.34
2019-04-25T19:39:25.358Z,98048.42
2019-04-25T19:42:13.105Z,98045.77
2019-04-25T19:44:42.536Z,98045.59
2019-04-25T19:47:11.983Z,98064.91
2019-04-25T19:49:41.701Z,98077.80
2019-04-25T19:52:11.660Z,98087.55
2019-04-25T19:54:41.947Z,98104.42
2019-04-25T19:57:11.483Z,98104.16
2019-04-25T19:59:40.917Z,98117.20
2019-04-25T20:02:12.001Z,98129.73
2019-04-25T20:04:45.552Z,98133.93
2019-04-25T20:07:34.966Z,98138.86
2019-04-25T20:10:10.401Z,98144.43
2019-04-25T20:12:44.044Z,98151.53
2019-04-25T20:15:14.067Z,98149.53
2019-04-25T20:17:44.812Z,98155.48
2019-04-25T20:20:15.671Z,98154.44
2019-04-25T20:22:46.112Z,98164.13
2019-04-25T20:25:15.753Z,98171.07
2019-04-25T20:27:45.645Z,98189.61
2019-04-25T20:30:17.830Z,98196.48
2019-04-25T20:32:47.381Z,98199.81
2019-04-25T20:35:17.167Z,98205.21
2019-04-25T20:37:47.460Z,98210.10
2019-04-25T20:40:17.346Z,98220.53
2019-04-25T20:42:47.968Z,98228.38
2019-04-25T20:45:17.557Z,98238.71
2019-04-25T20:47:47.975Z,98247.49
2019-04-25T20:50:17.582Z,98257.80
2019-04-25T20:52:47.523Z,98256.86
2019-04-25T20:55:17.608Z,98265.95
2019-04-25T20:57:48.054Z,98266.52
2019-04-25T21:00:41.808Z,98273.88
2019-04-25T21:03:11.312Z,98280.16
2019-04-25T21:05:41.308Z,98278.01
2019-04-25T21:08:11.027Z,98274.44
2019-04-25T21:10:40.473Z,98267.54
2019-04-25T21:13:11.615Z,98260.41
2019-04-25T21:15:52.158Z,98264.44
2019-04-25T21:18:23.588Z,98284.77
2019-04-25T21:20:53.381Z,98291.59
2019-04-25T21:23:22.800Z,98302.83
2019-04-25T21:25:52.915Z,98298.00
2019-04-25T21:28:22.462Z,98298.31
2019-04-25T21:30:52.714Z,98302.27
2019-04-25T21:33:22.255Z,98311.11
2019-04-25T21:35:53.271Z,98308.63
2019-04-25T21:38:23.343Z,98296.34
2019-04-25T21:41:06.953Z,98306.94
2019-04-25T21:43:38.496Z,98320.44
2019-04-25T21:46:08.361Z,98336.12
2019-04-25T21:48:38.219Z,98338.62
2019-04-25T21:51:09.576Z,98338.28
2019-04-25T21:53:39.278Z,98343.82
2019-04-25T21:56:08.910Z,98323.42
2019-04-25T21:58:38.698Z,98330.77
2019-04-25T22:01:10.255Z,98338.19
2019-04-25T22:03:39.686Z,98337.48
2019-04-25T22:06:09.311Z,98327.03
2019-04-25T22:08:38.751Z,98329.85
2019-04-25T22:11:08.212Z,98330.16
2019-04-25T22:13:38.382Z,98324.09
2019-04-25T22:16:08.299Z,98312.55
2019-04-25T22:18:38.516Z,98300.28
2019-04-25T22:21:08.042Z,98299.44
2019-04-25T22:23:38.038Z,98303.61
2019-04-25T22:26:07.862Z,98311.14
2019-04-25T22:28:37.483Z,98313.78
2019-04-25T22:31:14.865Z,98324.30
2019-04-25T22:33:49.060Z,98339.11
2019-04-25T22:36:20.534Z,98337.52
2019-04-25T22:39:08.684Z,98325.77
2019-04-25T22:41:40.002Z,98331.57
2019-04-25T22:44:12.179Z,98342.12
2019-04-25T22:46:42.797Z,98339.69
2019-04-25T22:49:12.311Z,98329.91
2019-04-25T22:51:41.759Z,98328.75
2019-04-25T22:54:11.871Z,98317.97
2019-04-25T22:56:41.262Z,98312.48
2019-04-25T22:59:11.113Z,98321.91
2019-04-25T23:01:40.647Z,98329.42
2019-04-25T23:04:17.818Z,98331.91
2019-04-25T23:06:47.259Z,98335.70
2019-04-25T23:09:17.054Z,98342.73
2019-04-25T23:11:46.763Z,98334.16
2019-04-25T23:14:16.452Z,98337.11
2019-04-25T23:16:46.171Z,98334.75
2019-04-25T23:19:15.876Z,98318.30
2019-04-25T23:21:45.490Z,98315.31
2019-04-25T23:24:16.575Z,98324.22
2019-04-25T23:27:01.348Z,98335.94
2019-04-25T23:29:30.794Z,98318.86
2019-04-25T23:32:00.480Z,98325.98
2019-04-25T23:34:30.623Z,98336.09
2019-04-25T23:37:00.055Z,98341.23
2019-04-25T23:39:29.955Z,98346.23
2019-04-25T23:41:59.391Z,98351.16
2019-04-25T23:44:28.848Z,98336.48
2019-04-25T23:46:58.560Z,98325.41
2019-04-25T23:49:28.256Z,98308.00
2019-04-25T23:51:57.974Z,98284.01
2019-04-25T23:54:27.781Z,98281.95
2019-04-25T23:56:57.675Z,98321.48
2019-04-25T23:59:27.105Z,98340.75
